Time;durP1;ratioP1;P1;durP2;ratioP2;P2;SDS_P1;SDS_P2;PMS_P1;PMS_P2;Temp;Humidity;BMP_temperature;BMP_pressure;BME280_temperature;BME280_humidity;BME280_pressure;Samples;Min_cycle;Max_cycle;Signal;HPM_P1;HPM_P2
2022/05/11 00:00:37;;;;;;;;;13.00;10.00;;;;;22.86;33.01;100736.09;110290;1264;19016;-48
2022/05/11 00:03:05;;;;;;;;;10.67;10.67;;;;;22.86;32.96;100733.58;110389;1262;19505;-47
2022/05/11 00:05:33;;;;;;;;;11.00;10.00;;;;;22.86;33.02;100725.88;110343;1262;18741;-48
2022/05/11 00:08:00;;;;;;;;;9.00;9.00;;;;;22.87;32.87;100722.54;110314;1262;18830;-50
2022/05/11 00:10:27;;;;;;;;;10.00;10.00;;;;;22.87;33.09;100726.49;110286;1263;19553;-50
2022/05/11 00:12:54;;;;;;;;;10.00;10.00;;;;;22.86;32.97;100718.61;110288;1262;18455;-48
2022/05/11 00:15:22;;;;;;;;;11.00;10.00;;;;;22.86;33.02;100715.87;110133;1264;22829;-49
2022/05/11 00:17:49;;;;;;;;;10.00;10.00;;;;;22.87;33.15;100714.74;110278;1263;19706;-48
2022/05/11 00:20:16;;;;;;;;;10.00;10.00;;;;;22.86;32.98;100708.77;110282;1264;18755;-49
2022/05/11 00:22:43;;;;;;;;;8.00;8.00;;;;;22.87;32.99;100712.36;110309;1263;23237;-49
2022/05/11 00:25:11;;;;;;;;;10.00;9.00;;;;;22.86;33.08;100714.23;110278;1264;19762;-50
2022/05/11 00:27:38;;;;;;;;;10.00;10.00;;;;;22.87;33.05;100712.17;110272;1264;18626;-49
2022/05/11 00:30:05;;;;;;;;;11.00;11.00;;;;;22.87;33.13;100708.70;110301;1263;18925;-49
2022/05/11 00:32:33;;;;;;;;;7.67;7.67;;;;;22.86;33.25;100701.32;110330;1264;19704;-48
2022/05/11 00:35:00;;;;;;;;;10.00;9.33;;;;;22.86;33.06;100700.06;110276;1262;18833;-52
2022/05/11 00:37:27;;;;;;;;;8.33;7.67;;;;;22.85;33.29;100696.13;110263;1263;18732;-50
2022/05/11 00:39:54;;;;;;;;;11.33;10.00;;;;;22.86;33.08;100692.98;110292;1262;22635;-50
2022/05/11 00:42:22;;;;;;;;;10.00;10.00;;;;;22.86;33.20;100687.14;110287;1264;18570;-48
2022/05/11 00:44:49;;;;;;;;;12.00;9.33;;;;;22.86;33.30;100685.50;110299;1264;19098;-48
2022/05/11 00:47:16;;;;;;;;;9.00;9.00;;;;;22.85;33.30;100675.54;110277;1264;19818;-49
2022/05/11 00:49:43;;;;;;;;;9.00;9.00;;;;;22.85;33.35;100673.89;110309;1262;18804;-49
2022/05/11 00:52:10;;;;;;;;;11.00;9.33;;;;;22.86;33.32;100666.59;110238;1262;18854;-49
2022/05/11 00:54:38;;;;;;;;;10.33;9.67;;;;;22.85;33.33;100657.13;110305;1262;19805;-48
2022/05/11 00:57:05;;;;;;;;;9.00;9.00;;;;;22.85;33.26;100654.42;110284;1264;20774;-50
2022/05/11 00:59:32;;;;;;;;;9.00;9.00;;;;;22.86;33.42;100651.12;110311;1264;23486;-52
2022/05/11 01:02:03;;;;;;;;;10.00;10.00;;;;;22.86;33.39;100650.49;110298;1264;19505;-50
2022/05/11 01:04:31;;;;;;;;;10.00;9.00;;;;;22.86;33.24;100647.16;110287;1264;20921;-49
2022/05/11 01:06:58;;;;;;;;;9.00;9.00;;;;;22.87;33.36;100646.08;110273;1262;18679;-48
2022/05/11 01:09:25;;;;;;;;;10.67;10.00;;;;;22.87;33.30;100646.55;110264;1262;19517;-46
2022/05/11 01:11:52;;;;;;;;;12.00;10.67;;;;;22.87;33.51;100643.96;110306;1262;18682;-49
2022/05/11 01:14:20;;;;;;;;;10.67;9.67;;;;;22.87;33.37;100647.48;110261;1264;19166;-48
2022/05/11 01:16:47;;;;;;;;;11.00;9.00;;;;;22.87;33.37;100643.80;110292;1262;19505;-46
2022/05/11 01:19:14;;;;;;;;;11.00;10.00;;;;;22.87;33.29;100635.66;110264;1264;18867;-49
2022/05/11 01:21:41;;;;;;;;;10.00;9.00;;;;;22.86;33.44;100631.31;110256;1263;22411;-48
2022/05/11 01:24:09;;;;;;;;;10.67;10.00;;;;;22.87;33.35;100630.91;110293;1264;19697;-51
2022/05/11 01:26:36;;;;;;;;;10.67;10.00;;;;;22.86;33.33;100624.46;110312;1264;21213;-52
2022/05/11 01:29:04;;;;;;;;;10.00;10.00;;;;;22.86;33.46;100614.79;110304;1263;18868;-50
2022/05/11 01:31:31;;;;;;;;;14.00;13.00;;;;;22.86;33.40;100611.30;110286;1264;19501;-49
2022/05/11 01:33:58;;;;;;;;;9.00;9.00;;;;;22.86;33.30;100606.09;110198;1263;22683;-47
2022/05/11 01:36:26;;;;;;;;;10.00;9.33;;;;;22.86;33.60;100609.70;110210;1263;18859;-50
2022/05/11 01:38:53;;;;;;;;;10.33;9.67;;;;;22.86;33.46;100610.94;110255;1265;19650;-46
2022/05/11 01:41:22;;;;;;;;;10.00;10.00;;;;;22.87;33.67;100611.41;110271;1263;18929;-48
2022/05/11 01:43:49;;;;;;;;;10.00;10.00;;;;;22.86;33.57;100619.29;110281;1262;18815;-50
2022/05/11 01:46:17;;;;;;;;;9.33;9.00;;;;;22.87;33.60;100616.36;110338;1262;21030;-49
2022/05/11 01:48:44;;;;;;;;;9.00;9.00;;;;;22.86;33.51;100608.79;110293;1262;18768;-47
2022/05/11 01:51:11;;;;;;;;;9.67;9.00;;;;;22.86;33.54;100609.38;110358;1261;18777;-46
2022/05/11 01:53:38;;;;;;;;;17.00;13.00;;;;;22.86;33.67;100606.46;110300;1264;19394;-49
2022/05/11 01:56:06;;;;;;;;;7.00;7.00;;;;;22.85;33.62;100599.55;110306;1261;18469;-49
2022/05/11 01:58:33;;;;;;;;;10.00;9.00;;;;;22.85;33.64;100598.51;110323;1262;18797;-51
2022/05/11 02:01:00;;;;;;;;;11.00;10.67;;;;;22.85;33.70;100595.44;110309;1263;19786;-49
2022/05/11 02:03:28;;;;;;;;;11.00;9.33;;;;;22.84;33.83;100596.78;110266;1262;18803;-49
2022/05/11 02:08:40;;;;;;;;;13.00;12.00;;;;;22.86;33.62;100597.72;110309;1264;19501;-49
2022/05/11 02:11:07;;;;;;;;;15.00;14.00;;;;;22.85;33.86;100595.19;110306;1262;18855;-50
2022/05/11 02:13:34;;;;;;;;;9.67;9.00;;;;;22.85;33.66;100597.29;110269;1264;22207;-50
2022/05/11 02:16:02;;;;;;;;;9.00;9.00;;;;;22.85;33.70;100595.56;110287;1263;22908;-49
2022/05/11 02:18:29;;;;;;;;;12.33;10.00;;;;;22.85;33.68;100591.10;110210;1264;18395;-50
2022/05/11 02:20:56;;;;;;;;;10.67;10.00;;;;;22.85;33.81;100586.70;110305;1264;18781;-50
2022/05/11 02:23:23;;;;;;;;;11.67;11.00;;;;;22.84;33.83;100585.89;110282;1263;19853;-48
2022/05/11 02:25:51;;;;;;;;;10.00;10.00;;;;;22.84;33.91;100588.96;110263;1264;22406;-49
2022/05/11 02:28:18;;;;;;;;;10.00;9.00;;;;;22.84;33.88;100584.05;110268;1263;19360;-48
2022/05/11 02:30:45;;;;;;;;;12.33;10.67;;;;;22.85;33.83;100580.35;110278;1262;19655;-48
2022/05/11 02:33:12;;;;;;;;;10.00;9.00;;;;;22.84;33.63;100573.15;110295;1264;18792;-49
2022/05/11 02:35:39;;;;;;;;;10.00;10.00;;;;;22.84;33.84;100570.21;110326;1264;19074;-49
2022/05/11 02:38:07;;;;;;;;;10.00;10.00;;;;;22.84;33.81;100558.23;110250;1264;21050;-48
2022/05/11 02:40:34;;;;;;;;;10.00;9.50;;;;;22.84;33.96;100554.88;110276;1262;22782;-49
2022/05/11 02:43:02;;;;;;;;;10.33;9.67;;;;;22.84;33.88;100549.90;110283;1263;18871;-49
2022/05/11 02:45:29;;;;;;;;;14.00;11.00;;;;;22.85;33.96;100551.00;110262;1264;19606;-49
2022/05/11 02:47:56;;;;;;;;;10.00;9.33;;;;;22.84;33.92;100551.08;110318;1262;18957;-49
2022/05/11 02:50:23;;;;;;;;;9.50;9.50;;;;;22.85;34.05;100552.10;110304;1262;20437;-48
2022/05/11 02:52:51;;;;;;;;;11.00;10.00;;;;;22.84;33.86;100553.23;110307;1264;19482;-48
2022/05/11 02:55:18;;;;;;;;;10.33;10.33;;;;;22.85;33.90;100548.69;110268;1262;18640;-49
2022/05/11 02:57:46;;;;;;;;;10.67;10.33;;;;;22.85;33.98;100552.09;110317;1264;18902;-50
2022/05/11 03:00:13;;;;;;;;;10.00;9.50;;;;;22.85;33.92;100550.79;110287;1264;19579;-48
2022/05/11 03:02:40;;;;;;;;;10.00;9.50;;;;;22.84;34.05;100549.14;110321;1263;22757;-50
2022/05/11 03:05:08;;;;;;;;;10.00;10.00;;;;;22.84;34.05;100548.73;110278;1262;18740;-48
2022/05/11 03:07:35;;;;;;;;;13.00;12.67;;;;;22.84;34.00;100543.98;110284;1264;19437;-48
2022/05/11 03:10:02;;;;;;;;;12.33;11.00;;;;;22.84;33.86;100541.29;110273;1264;19098;-49
2022/05/11 03:12:31;;;;;;;;;13.50;10.00;;;;;22.84;34.01;100541.08;110289;1263;19110;-49
2022/05/11 03:14:59;;;;;;;;;9.67;9.67;;;;;22.83;34.01;100533.89;110293;1264;19802;-53
2022/05/11 03:17:26;;;;;;;;;10.00;10.00;;;;;22.84;33.86;100542.55;110298;1262;18834;-47
2022/05/11 03:19:53;;;;;;;;;10.33;10.00;;;;;22.84;34.01;100541.45;110295;1264;22939;-48
2022/05/11 03:22:21;;;;;;;;;9.33;9.33;;;;;22.84;34.13;100542.71;110298;1264;19676;-49
2022/05/11 03:24:48;;;;;;;;;13.00;11.00;;;;;22.84;34.11;100538.93;110285;1262;21532;-48
2022/05/11 03:27:15;;;;;;;;;13.00;10.00;;;;;22.83;34.07;100538.63;110305;1261;22872;-49
2022/05/11 03:29:42;;;;;;;;;11.00;10.67;;;;;22.84;34.18;100537.80;110327;1262;19627;-48
2022/05/11 03:34:55;;;;;;;;;12.00;11.33;;;;;22.84;34.12;100530.95;110274;1263;23141;-48
2022/05/11 03:37:22;;;;;;;;;12.00;12.00;;;;;22.84;34.10;100533.66;110304;1262;22073;-48
2022/05/11 03:39:50;;;;;;;;;9.50;9.50;;;;;22.82;34.18;100533.82;110274;1264;19059;-48
2022/05/11 03:42:17;;;;;;;;;10.00;10.00;;;;;22.83;34.16;100533.04;110286;1264;19056;-47
2022/05/11 03:44:44;;;;;;;;;11.00;11.00;;;;;22.83;34.14;100528.50;110303;1264;22796;-48
2022/05/11 03:47:12;;;;;;;;;11.00;11.00;;;;;22.83;34.04;100525.17;110270;1262;18778;-49
2022/05/11 03:49:39;;;;;;;;;13.00;11.00;;;;;22.84;34.23;100522.75;110270;1264;18776;-46
2022/05/11 03:52:06;;;;;;;;;11.00;11.00;;;;;22.83;34.35;100524.59;110290;1264;19630;-48
2022/05/11 03:54:33;;;;;;;;;14.33;11.00;;;;;22.84;34.30;100528.55;110289;1264;20255;-49
2022/05/11 03:57:01;;;;;;;;;13.00;10.67;;;;;22.84;34.27;100522.45;110307;1264;18927;-49
2022/05/11 03:59:28;;;;;;;;;10.67;10.33;;;;;22.84;34.23;100524.92;110276;1264;19712;-49
2022/05/11 04:01:55;;;;;;;;;13.50;11.00;;;;;22.84;34.24;100523.97;110263;1264;18792;-49
2022/05/11 04:04:22;;;;;;;;;14.00;11.00;;;;;22.84;34.42;100521.30;110149;1264;19810;-45
2022/05/11 04:06:50;;;;;;;;;11.00;10.00;;;;;22.84;34.33;100522.03;110237;1262;19602;-46
2022/05/11 04:09:17;;;;;;;;;12.00;12.00;;;;;22.84;34.52;100525.60;110307;1263;18871;-46
2022/05/11 04:11:45;;;;;;;;;11.00;10.00;;;;;22.84;34.54;100525.27;110270;1263;19103;-48
2022/05/11 04:14:12;;;;;;;;;11.00;10.00;;;;;22.84;34.51;100530.90;110332;1262;19505;-48
2022/05/11 04:16:39;;;;;;;;;10.00;10.00;;;;;22.84;34.63;100542.51;110271;1262;18785;-47
2022/05/11 04:19:06;;;;;;;;;10.33;10.00;;;;;22.84;34.46;100536.87;110293;1264;18803;-49
2022/05/11 04:21:33;;;;;;;;;9.00;9.00;;;;;22.85;34.58;100547.94;110295;1264;19503;-50
2022/05/11 04:24:01;;;;;;;;;13.00;13.00;;;;;22.84;34.51;100546.91;110318;1263;18883;-47
2022/05/11 04:26:30;;;;;;;;;11.67;11.00;;;;;22.83;34.53;100555.75;110268;1264;18919;-49
2022/05/11 04:28:58;;;;;;;;;11.00;10.33;;;;;22.83;34.47;100553.94;110271;1262;21331;-49
2022/05/11 04:31:25;;;;;;;;;7.00;7.00;;;;;22.83;34.43;100556.71;110329;1262;18822;-48
2022/05/11 04:33:52;;;;;;;;;14.00;13.00;;;;;22.83;34.49;100551.61;110279;1262;18720;-49
2022/05/11 04:36:21;;;;;;;;;10.00;9.50;;;;;22.82;34.50;100542.26;110363;1261;19809;-48
2022/05/11 04:38:48;;;;;;;;;10.67;10.00;;;;;22.82;34.55;100537.72;110322;1264;18745;-50
2022/05/11 04:41:16;;;;;;;;;11.00;11.00;;;;;22.82;34.55;100536.66;110289;1264;18837;-51
2022/05/11 04:43:43;;;;;;;;;10.00;10.00;;;;;22.82;34.53;100536.79;110290;1264;19602;-48
2022/05/11 04:46:10;;;;;;;;;14.00;12.50;;;;;22.81;34.60;100538.17;110307;1262;18753;-47
2022/05/11 04:48:38;;;;;;;;;11.00;11.00;;;;;22.81;34.80;100545.27;110291;1262;20328;-49
2022/05/11 04:51:05;;;;;;;;;14.33;13.67;;;;;22.81;34.56;100544.05;110319;1263;19698;-49
2022/05/11 04:53:33;;;;;;;;;15.00;12.50;;;;;22.82;34.54;100545.16;110253;1262;18880;-49
2022/05/11 04:56:00;;;;;;;;;10.00;10.00;;;;;22.82;34.67;100540.16;110312;1262;23268;-48
2022/05/11 04:58:27;;;;;;;;;9.33;9.33;;;;;22.84;34.69;100548.98;110353;1261;22673;-49
2022/05/11 05:00:55;;;;;;;;;13.00;11.00;;;;;22.85;34.80;100564.46;110334;1262;18795;-48
2022/05/11 05:03:22;;;;;;;;;11.00;11.00;;;;;22.84;34.71;100562.02;110357;1262;18766;-48
2022/05/11 05:05:50;;;;;;;;;10.00;10.00;;;;;22.85;35.03;100577.19;110337;1261;19709;-54
2022/05/11 05:08:17;;;;;;;;;14.00;11.33;;;;;22.86;34.79;100581.65;110292;1262;18749;-47
2022/05/11 05:10:44;;;;;;;;;14.00;13.00;;;;;22.87;34.84;100579.36;110252;1262;19071;-48
2022/05/11 05:13:12;;;;;;;;;13.67;11.67;;;;;22.88;34.83;100585.61;110275;1263;19633;-46
2022/05/11 05:15:40;;;;;;;;;11.00;10.00;;;;;22.92;35.43;100582.39;110259;1262;18754;-48
2022/05/11 05:18:07;;;;;;;;;12.33;10.33;;;;;22.98;35.82;100580.88;110286;1264;18918;-48
2022/05/11 05:20:34;;;;;;;;;13.33;13.00;;;;;23.03;35.99;100577.61;110236;1262;19956;-48
2022/05/11 05:23:02;;;;;;;;;13.00;13.00;;;;;23.04;36.10;100579.51;110267;1262;18715;-47
2022/05/11 05:25:29;;;;;;;;;11.00;10.00;;;;;23.01;36.38;100586.35;110284;1262;18753;-47
2022/05/11 05:31:04;;;;;;;;;10.00;10.00;;;;;23.01;36.60;100586.89;110289;1262;19492;-45
2022/05/11 05:33:28;;;;;;;;;11.00;11.00;;;;;23.07;36.89;100580.81;110118;1262;20505;-48
2022/05/11 05:35:56;;;;;;;;;11.00;11.00;;;;;23.08;37.00;100590.49;110242;1262;19529;-47
2022/05/11 05:38:23;;;;;;;;;12.33;11.00;;;;;23.05;36.91;100597.23;110281;1262;18911;-49
2022/05/11 05:40:50;;;;;;;;;19.00;18.50;;;;;23.00;36.82;100598.34;110240;1262;20381;-47
2022/05/11 05:43:17;;;;;;;;;21.00;19.00;;;;;22.90;37.02;100600.81;110253;1261;19621;-48
2022/05/11 05:45:45;;;;;;;;;26.00;24.00;;;;;22.77;37.58;100605.06;110229;1261;18797;-47
2022/05/11 05:48:12;;;;;;;;;21.67;21.00;;;;;22.65;37.95;100598.80;110388;1262;18825;-49
2022/05/11 05:50:39;;;;;;;;;18.67;18.00;;;;;22.60;38.01;100599.66;110249;1262;19595;-47
2022/05/11 05:53:06;;;;;;;;;22.67;21.00;;;;;22.70;38.09;100597.37;110201;1262;20521;-48
2022/05/11 05:55:33;;;;;;;;;27.00;25.00;;;;;22.78;38.43;100604.02;110259;1263;18935;-48
2022/05/11 05:58:01;;;;;;;;;27.67;25.33;;;;;22.55;39.24;100597.74;110245;1262;21842;-50
2022/05/11 06:00:28;;;;;;;;;25.67;25.67;;;;;22.29;39.87;100595.58;110246;1262;18940;-50
2022/05/11 06:02:56;;;;;;;;;29.00;26.33;;;;;22.06;40.80;100588.87;110279;1264;18759;-49
2022/05/11 06:05:23;;;;;;;;;33.50;31.50;;;;;22.02;40.85;100597.08;110216;1262;22676;-47
2022/05/11 06:07:50;;;;;;;;;28.67;26.33;;;;;22.07;40.95;100600.09;110164;1263;18793;-49
2022/05/11 06:10:18;;;;;;;;;35.33;33.00;;;;;22.15;40.49;100593.30;110227;1262;19281;-49
2022/05/11 06:12:45;;;;;;;;;29.67;28.33;;;;;22.18;40.54;100599.27;110257;1264;19537;-48
2022/05/11 06:15:13;;;;;;;;;33.00;30.00;;;;;22.21;40.58;100599.25;110291;1263;18845;-48
2022/05/11 06:17:40;;;;;;;;;32.67;31.67;;;;;22.17;40.81;100591.27;110261;1262;19125;-49
2022/05/11 06:20:09;;;;;;;;;31.00;28.67;;;;;22.14;40.98;100590.10;110234;1263;20058;-50
2022/05/11 06:22:37;;;;;;;;;27.67;26.67;;;;;22.15;40.83;100596.54;110273;1262;18747;-51
2022/05/11 06:25:04;;;;;;;;;35.67;33.67;;;;;22.17;40.89;100604.33;110176;1262;19078;-47
2022/05/11 06:27:31;;;;;;;;;33.67;31.33;;;;;22.17;40.93;100600.68;110210;1264;22935;-49
2022/05/11 06:29:58;;;;;;;;;34.67;33.00;;;;;22.17;41.23;100607.09;110291;1261;18988;-47
2022/05/11 06:32:26;;;;;;;;;32.00;29.00;;;;;22.20;41.34;100604.88;110175;1262;18851;-49
2022/05/11 06:34:53;;;;;;;;;37.00;32.33;;;;;22.26;41.01;100602.95;110175;1262;22863;-49
2022/05/11 06:37:20;;;;;;;;;36.00;33.00;;;;;22.30;41.07;100601.03;110270;1262;18842;-50
2022/05/11 06:39:48;;;;;;;;;35.67;30.67;;;;;22.32;41.02;100601.88;110163;1262;19486;-48
2022/05/11 06:42:15;;;;;;;;;35.00;33.00;;;;;22.33;41.17;100602.82;110236;1264;22245;-49
2022/05/11 06:44:42;;;;;;;;;36.50;33.00;;;;;22.33;41.80;100597.77;110168;1262;18920;-47
2022/05/11 06:47:09;;;;;;;;;27.50;26.50;;;;;22.33;41.63;100597.94;110250;1262;19128;-50
2022/05/11 06:49:37;;;;;;;;;36.33;33.00;;;;;22.25;42.20;100600.44;110246;1264;19720;-50
2022/05/11 06:52:04;;;;;;;;;34.50;32.00;;;;;22.16;42.41;100600.27;110273;1264;18818;-47
2022/05/11 07:00:01;;;;;;;;;30.67;29.67;;;;;22.21;42.79;100602.52;110261;1263;19468;-47
2022/05/11 07:02:28;;;;;;;;;43.00;40.33;;;;;22.28;42.64;100602.95;110223;1264;19139;-48
2022/05/11 07:04:56;;;;;;;;;43.67;40.00;;;;;22.28;42.78;100608.92;110166;1262;19608;-49
2022/05/11 07:07:23;;;;;;;;;35.67;34.33;;;;;22.22;43.06;100604.57;110187;1262;19877;-49
2022/05/11 07:09:51;;;;;;;;;39.00;35.00;;;;;22.15;43.38;100606.61;110191;1262;19126;-50
2022/05/11 07:12:18;;;;;;;;;39.00;33.67;;;;;22.19;43.16;100607.38;110243;1264;22699;-48
2022/05/11 07:14:45;;;;;;;;;41.33;37.00;;;;;22.23;43.00;100611.63;110259;1262;18844;-48
2022/05/11 07:17:12;;;;;;;;;40.67;37.33;;;;;22.21;43.31;100612.66;110259;1261;21129;-52
2022/05/11 07:19:39;;;;;;;;;39.67;37.33;;;;;22.18;43.74;100614.77;110273;1262;19543;-47
2022/05/11 07:22:07;;;;;;;;;38.67;34.00;;;;;22.20;43.80;100613.95;110242;1262;23197;-47
2022/05/11 07:24:34;;;;;;;;;32.00;29.67;;;;;22.20;43.67;100607.06;110197;1262;19084;-50
2022/05/11 07:27:02;;;;;;;;;32.50;30.00;;;;;22.20;44.03;100602.73;110304;1264;19785;-48
2022/05/11 07:29:29;;;;;;;;;33.00;30.33;;;;;22.22;44.70;100599.73;110282;1262;18784;-48
2022/05/11 07:31:56;;;;;;;;;34.67;32.33;;;;;22.32;44.32;100609.32;110254;1264;18873;-49
2022/05/11 07:34:24;;;;;;;;;30.67;29.00;;;;;22.34;44.35;100608.92;110304;1262;19808;-50
2022/05/11 07:36:54;;;;;;;;;34.33;31.67;;;;;22.36;44.12;100614.54;110289;1262;19064;-50
2022/05/11 07:39:26;;;;;;;;;31.67;30.67;;;;;22.40;44.04;100614.33;109864;1264;500764;-52
2022/05/11 07:41:55;;;;;;;;;34.00;33.33;;;;;22.40;44.04;100611.80;110290;1263;19571;-52
2022/05/11 07:44:23;;;;;;;;;33.00;30.00;;;;;22.38;43.95;100613.89;110164;1263;18905;-50
2022/05/11 07:46:51;;;;;;;;;28.50;27.00;;;;;22.36;43.94;100612.48;110231;1263;18869;-52
2022/05/11 07:49:18;;;;;;;;;31.67;28.67;;;;;22.36;43.63;100602.15;110214;1263;19639;-51
2022/05/11 07:51:46;;;;;;;;;34.33;33.33;;;;;22.37;43.83;100592.16;110145;1261;18703;-50
2022/05/11 07:54:13;;;;;;;;;26.67;26.67;;;;;22.38;43.72;100588.09;110363;1261;18866;-51
2022/05/11 08:02:10;;;;;;;;;34.00;30.67;;;;;22.33;43.40;100591.08;110324;1262;19134;-51
2022/05/11 08:04:38;;;;;;;;;33.33;30.00;;;;;22.37;43.38;100587.48;110304;1262;19547;-50
2022/05/11 08:07:05;;;;;;;;;33.67;31.33;;;;;22.39;43.02;100575.53;110216;1262;18835;-50
2022/05/11 08:09:32;;;;;;;;;29.33;29.00;;;;;22.43;43.11;100574.12;110291;1262;18776;-49
2022/05/11 08:12:00;;;;;;;;;33.33;32.33;;;;;22.42;43.12;100581.79;110303;1262;19936;-50
2022/05/11 08:14:29;;;;;;;;;33.00;30.00;;;;;22.34;43.11;100587.50;110280;1262;18774;-50
2022/05/11 08:16:56;;;;;;;;;32.00;29.67;;;;;22.28;43.22;100592.04;110203;1262;21843;-50
2022/05/11 08:19:23;;;;;;;;;33.33;32.67;;;;;22.25;43.06;100587.05;110151;1261;19608;-49
2022/05/11 08:21:51;;;;;;;;;29.67;29.67;;;;;22.14;43.33;100585.21;110094;1263;19083;-49
2022/05/11 08:24:18;;;;;;;;;33.00;30.00;;;;;22.25;43.06;100586.55;110286;1264;19132;-53
2022/05/11 08:26:47;;;;;;;;;30.00;28.33;;;;;22.31;43.09;100588.01;110264;1262;22863;-49
2022/05/11 08:33:19;;;;;;;;;27.33;26.33;;;;;22.39;42.73;100584.42;110262;1263;21387;-49
2022/05/11 08:34:47;;;;;;;;;27.67;26.67;;;;;22.62;42.51;100578.11;110271;1262;19776;-52
2022/05/11 08:37:14;;;;;;;;;27.33;26.67;;;;;22.73;42.31;100579.08;110274;1262;23016;-50
2022/05/11 08:39:42;;;;;;;;;26.67;26.33;;;;;22.80;42.23;100576.39;110273;1262;19058;-48
2022/05/11 08:42:09;;;;;;;;;25.33;24.33;;;;;22.87;42.28;100579.52;110362;1262;19681;-50
2022/05/11 08:44:36;;;;;;;;;26.00;23.00;;;;;22.91;42.61;100580.69;110257;1262;18723;-50
2022/05/11 08:47:04;;;;;;;;;29.00;26.00;;;;;22.87;42.47;100584.55;110296;1262;18927;-51
2022/05/11 08:49:31;;;;;;;;;26.00;23.67;;;;;22.82;42.26;100583.92;110248;1262;22345;-50
2022/05/11 08:51:58;;;;;;;;;26.33;25.00;;;;;22.84;42.30;100585.33;110100;1264;18767;-53
2022/05/11 08:54:25;;;;;;;;;26.00;24.67;;;;;22.89;42.37;100585.25;110221;1261;19081;-50
2022/05/11 08:56:55;;;;;;;;;26.33;24.33;;;;;22.93;42.29;100585.63;110192;1262;19510;-48
2022/05/11 08:59:23;;;;;;;;;26.67;25.00;;;;;22.95;42.50;100582.88;110257;1262;27641;-50
2022/05/11 09:01:50;;;;;;;;;23.00;23.00;;;;;22.99;42.42;100578.54;110246;1262;18956;-49
2022/05/11 09:04:17;;;;;;;;;26.00;24.50;;;;;23.00;42.45;100576.48;109675;1262;19615;-50
2022/05/11 09:06:45;;;;;;;;;22.00;22.00;;;;;23.01;42.46;100576.29;110221;1262;18854;-50
2022/05/11 09:09:14;;;;;;;;;25.00;23.00;;;;;23.00;42.89;100577.89;110261;1264;19527;-49
2022/05/11 09:11:42;;;;;;;;;24.50;24.50;;;;;23.02;43.21;100584.17;110209;1262;19626;-52
2022/05/11 09:14:09;;;;;;;;;25.00;21.00;;;;;23.04;43.27;100589.39;110133;1262;18791;-50
2022/05/11 09:16:36;;;;;;;;;23.67;22.33;;;;;23.03;43.50;100588.30;110166;1264;18846;-52
2022/05/11 09:19:04;;;;;;;;;25.00;25.00;;;;;23.00;43.75;100585.31;110258;1262;19559;-49
2022/05/11 09:21:32;;;;;;;;;21.67;21.67;;;;;23.00;43.73;100583.34;110226;1262;18758;-51
2022/05/11 09:23:59;;;;;;;;;27.00;26.00;;;;;23.00;43.75;100582.84;110232;1262;21455;-49
2022/05/11 09:26:27;;;;;;;;;27.00;24.00;;;;;22.98;43.83;100579.54;110101;1262;20451;-51
2022/05/11 09:28:55;;;;;;;;;27.33;25.67;;;;;23.02;44.76;100581.30;110248;1262;20361;-49
2022/05/11 09:31:22;;;;;;;;;26.50;23.00;;;;;23.05;45.13;100584.19;110178;1263;19356;-51
2022/05/11 09:33:50;;;;;;;;;29.00;26.33;;;;;23.04;45.03;100584.94;110268;1262;22087;-52
2022/05/11 09:36:17;;;;;;;;;25.00;22.33;;;;;23.05;44.69;100587.30;110301;1264;19049;-45
2022/05/11 09:38:46;;;;;;;;;25.00;25.00;;;;;23.04;44.60;100583.51;110259;1264;19092;-49
2022/05/11 09:41:13;;;;;;;;;26.67;26.00;;;;;23.07;44.35;100586.23;110244;1263;19485;-50
2022/05/11 09:43:41;;;;;;;;;27.00;26.67;;;;;23.07;44.21;100581.14;110263;1264;19041;-50
2022/05/11 09:46:08;;;;;;;;;28.33;27.00;;;;;23.12;44.79;100581.44;110258;1262;18736;-49
2022/05/11 09:48:37;;;;;;;;;30.00;26.67;;;;;23.19;44.87;100586.13;110304;1262;19532;-50
2022/05/11 09:51:04;;;;;;;;;28.33;26.33;;;;;23.23;44.57;100576.81;110326;1263;19074;-51
2022/05/11 09:53:32;;;;;;;;;24.67;22.67;;;;;23.24;44.70;100565.39;110212;1262;19325;-50
2022/05/11 09:55:59;;;;;;;;;28.00;27.00;;;;;23.25;44.52;100554.59;110271;1262;20384;-50
2022/05/11 09:58:26;;;;;;;;;24.00;24.00;;;;;23.29;44.62;100562.52;110244;1262;18844;-49
2022/05/11 10:00:54;;;;;;;;;26.00;22.67;;;;;23.33;44.34;100565.30;110235;1262;18851;-46
2022/05/11 10:03:21;;;;;;;;;29.00;26.33;;;;;23.40;44.00;100565.73;110293;1262;19790;-54
2022/05/11 10:05:48;;;;;;;;;26.67;26.00;;;;;23.51;43.69;100558.77;110264;1262;20318;-49
2022/05/11 10:08:18;;;;;;;;;28.00;27.00;;;;;23.62;43.75;100551.86;110246;1263;20998;-47
2022/05/11 10:10:46;;;;;;;;;30.67;25.33;;;;;23.60;43.51;100548.54;110202;1265;19541;-47
2022/05/11 10:13:13;;;;;;;;;30.00;27.67;;;;;23.69;43.18;100554.17;110093;1265;20395;-48
2022/05/11 10:23:55;;;;;;;;;22.00;21.00;;;;;23.45;43.05;100560.05;110293;1263;18997;-50
2022/05/11 10:26:22;;;;;;;;;22.00;22.00;;;;;23.41;42.99;100559.46;110245;1264;19519;-49
2022/05/11 10:28:49;;;;;;;;;21.33;21.33;;;;;23.42;42.93;100562.55;110313;1262;18754;-52
2022/05/11 10:31:16;;;;;;;;;23.00;21.50;;;;;23.44;42.66;100560.09;110290;1261;20331;-50
2022/05/11 10:33:44;;;;;;;;;23.67;22.67;;;;;23.44;42.64;100552.92;110254;1262;19586;-52
2022/05/11 10:36:11;;;;;;;;;23.33;22.67;;;;;23.43;42.68;100555.16;110403;1262;18867;-51
2022/05/11 10:38:38;;;;;;;;;20.67;18.67;;;;;23.40;42.71;100557.73;110271;1262;18889;-49
2022/05/11 10:41:05;;;;;;;;;20.00;19.50;;;;;23.40;42.71;100555.33;110280;1264;20055;-50
2022/05/11 10:43:33;;;;;;;;;22.00;20.00;;;;;23.40;42.75;100550.83;110266;1264;18909;-48
2022/05/11 10:46:00;;;;;;;;;20.00;19.50;;;;;23.49;42.81;100547.63;110262;1264;19042;-49
2022/05/11 10:48:28;;;;;;;;;21.00;18.00;;;;;23.52;42.89;100545.27;110265;1263;19552;-48
2022/05/11 10:50:56;;;;;;;;;22.00;21.00;;;;;23.51;42.93;100549.77;110219;1263;19155;-50
2022/05/11 10:53:23;;;;;;;;;20.00;19.00;;;;;23.49;42.80;100542.27;110222;1264;18904;-51
2022/05/11 10:55:50;;;;;;;;;19.00;18.50;;;;;23.47;42.92;100546.48;110261;1263;19759;-48
2022/05/11 10:58:17;;;;;;;;;21.33;19.67;;;;;23.46;42.87;100544.81;110279;1261;22158;-49
2022/05/11 11:00:45;;;;;;;;;19.67;19.00;;;;;23.48;43.08;100543.20;110236;1264;18876;-53
2022/05/11 11:03:12;;;;;;;;;19.00;19.00;;;;;23.50;43.27;100547.04;110326;1261;19573;-53
2022/05/11 11:05:39;;;;;;;;;19.67;16.33;;;;;23.46;43.34;100544.55;110208;1261;22883;-49
2022/05/11 11:08:06;;;;;;;;;20.00;19.00;;;;;23.43;43.33;100538.06;110221;1262;21961;-52
2022/05/11 11:10:34;;;;;;;;;19.67;19.67;;;;;23.46;43.52;100543.52;110265;1262;19662;-48
2022/05/11 11:13:01;;;;;;;;;23.00;22.00;;;;;23.49;43.57;100536.88;110242;1264;19681;-48
2022/05/11 11:15:28;;;;;;;;;22.00;20.00;;;;;23.53;43.77;100528.02;110294;1262;19781;-48
2022/05/11 11:17:56;;;;;;;;;25.67;23.67;;;;;23.57;44.41;100524.39;110199;1264;22440;-50
2022/05/11 11:20:23;;;;;;;;;22.00;19.00;;;;;23.57;44.80;100523.05;110271;1264;18727;-50
2022/05/11 11:22:50;;;;;;;;;24.00;23.67;;;;;23.58;44.97;100522.96;110247;1262;18845;-55
2022/05/11 11:25:17;;;;;;;;;20.33;19.00;;;;;23.59;44.91;100518.55;110279;1262;19839;-50
2022/05/11 11:27:45;;;;;;;;;23.67;23.67;;;;;23.61;45.09;100517.83;110235;1264;19429;-50
2022/05/11 11:30:12;;;;;;;;;23.00;22.00;;;;;23.61;45.40;100519.67;110377;1262;18951;-50
2022/05/11 11:32:39;;;;;;;;;23.00;22.00;;;;;23.63;45.26;100515.75;110291;1262;19552;-49
2022/05/11 11:35:06;;;;;;;;;23.00;23.00;;;;;23.64;45.37;100509.82;110265;1264;22194;-52